Elyria, Ohio
Current Conditions -  °F | °C
As of 11:53 PM on Saturday 22 Nov 2014 (Local Time) from KLPR Reporting Station
Overcast Overcast  
Wind Chill: 44°   Ceiling: 4100
Heat Index: 49°   Visibility: 10mi
Dew Point: 37°   Wind: 12mph
Humidity: 64%   Direction: 210°SSW
Pressure: 30.03"   Gusts: NA
Location:  41.37°N, 82.1°W
Report Text: KLPR 230453Z AUTO 21010KT 10SM OVC041 09/03 A3003 RMK AO2 SLP171 T00940028 400941078 TSNO
Loading
Personal Weather Stations






























Interactive Weather Map New forecast layout! Learn more

10-Day Weather Forecast

Advertisements
Track Severe Weather on mobile